createdAt,value
2024-01-26T00:01:21.009Z,0.00
2024-01-26T00:03:48.984Z,0.75
2024-01-26T00:06:17.138Z,1.00
2024-01-26T00:08:44.928Z,0.50
2024-01-26T00:11:12.611Z,0.25
2024-01-26T00:13:40.760Z,0.00
2024-01-26T00:16:08.513Z,0.50
2024-01-26T00:18:36.312Z,1.00
2024-01-26T00:21:05.066Z,1.00
2024-01-26T00:23:32.758Z,0.75
2024-01-26T00:26:00.504Z,0.00
2024-01-26T00:28:28.347Z,0.00
2024-01-26T00:30:56.143Z,1.00
2024-01-26T00:33:23.854Z,0.00
2024-01-26T00:35:52.033Z,0.00
2024-01-26T00:38:19.670Z,0.00
2024-01-26T00:40:47.607Z,0.25
2024-01-26T00:43:15.295Z,0.25
2024-01-26T00:45:42.974Z,0.00
2024-01-26T00:48:10.693Z,0.00
2024-01-26T00:50:38.486Z,0.00
2024-01-26T00:53:06.252Z,0.00
2024-01-26T00:55:33.904Z,1.00
2024-01-26T00:58:02.156Z,0.00
2024-01-26T01:00:30.344Z,1.00
2024-01-26T01:02:58.033Z,0.50
2024-01-26T01:05:26.211Z,1.00
2024-01-26T01:07:53.906Z,1.00
2024-01-26T01:10:21.547Z,0.00
2024-01-26T01:12:49.272Z,0.00
2024-01-26T01:15:18.359Z,1.00
2024-01-26T01:17:46.257Z,0.00
2024-01-26T01:20:15.097Z,0.00
2024-01-26T01:22:42.845Z,0.00
2024-01-26T01:25:10.517Z,0.75
2024-01-26T01:27:38.308Z,0.25
2024-01-26T01:30:06.025Z,0.00
2024-01-26T01:32:33.788Z,0.00
2024-01-26T01:35:01.528Z,0.00
2024-01-26T01:37:29.180Z,0.00
2024-01-26T01:39:56.853Z,0.00
2024-01-26T01:42:24.905Z,0.00
2024-01-26T01:44:52.598Z,0.00
2024-01-26T01:47:20.319Z,0.00
2024-01-26T01:49:48.059Z,0.00
2024-01-26T01:52:15.751Z,0.00
2024-01-26T01:54:43.377Z,0.00
2024-01-26T01:57:11.022Z,0.00
2024-01-26T01:59:38.900Z,1.00
2024-01-26T02:02:06.810Z,0.00
2024-01-26T02:04:34.937Z,0.50
2024-01-26T02:07:02.606Z,0.00
2024-01-26T02:09:30.240Z,0.75
2024-01-26T02:11:58.026Z,0.50
2024-01-26T02:14:26.903Z,0.50
2024-01-26T02:16:54.836Z,0.00
2024-01-26T02:19:24.764Z,0.00
2024-01-26T02:21:53.620Z,0.75
2024-01-26T02:24:21.305Z,1.00
2024-01-26T02:26:49.472Z,0.00
2024-01-26T02:29:17.142Z,0.00
2024-01-26T02:31:44.795Z,1.00
2024-01-26T02:34:15.050Z,1.00
2024-01-26T02:36:42.874Z,1.00
2024-01-26T02:39:11.599Z,0.00
2024-01-26T02:41:39.396Z,2.00
2024-01-26T02:44:07.058Z,1.00
2024-01-26T02:46:34.844Z,0.00
2024-01-26T02:49:03.359Z,1.50
2024-01-26T02:51:31.180Z,1.00
2024-01-26T02:53:58.849Z,2.50
2024-01-26T02:56:26.542Z,3.00
2024-01-26T02:58:54.180Z,3.00
2024-01-26T03:01:21.908Z,2.00
2024-01-26T03:03:49.664Z,2.50
2024-01-26T03:06:17.405Z,3.25
2024-01-26T03:08:45.174Z,2.00
2024-01-26T03:11:13.361Z,3.00
2024-01-26T03:13:40.993Z,3.00
2024-01-26T03:16:08.633Z,2.50
2024-01-26T03:18:36.384Z,2.00
2024-01-26T03:21:04.171Z,3.75
2024-01-26T03:23:31.989Z,3.50
2024-01-26T03:25:59.719Z,3.50
2024-01-26T03:28:27.349Z,3.00
2024-01-26T03:30:54.986Z,3.50
2024-01-26T03:33:23.157Z,4.00
2024-01-26T03:35:50.916Z,3.50
2024-01-26T03:38:18.631Z,0.00
2024-01-26T03:40:46.275Z,5.00
2024-01-26T03:43:13.890Z,3.00
2024-01-26T03:45:41.550Z,3.00
2024-01-26T03:48:09.440Z,3.25
2024-01-26T03:50:37.246Z,4.50
2024-01-26T03:53:04.912Z,3.00
2024-01-26T03:55:32.938Z,3.00
2024-01-26T03:58:00.964Z,3.00
2024-01-26T04:00:28.578Z,3.50
2024-01-26T04:02:56.395Z,1.00
2024-01-26T04:05:24.069Z,2.50
2024-01-26T04:07:51.758Z,4.00
2024-01-26T04:10:19.441Z,3.00
2024-01-26T04:12:47.072Z,3.00
2024-01-26T04:15:14.762Z,1.00
2024-01-26T04:17:42.552Z,3.00
2024-01-26T04:20:10.328Z,3.75
2024-01-26T04:22:37.997Z,4.00
2024-01-26T04:25:05.712Z,1.50
2024-01-26T04:27:33.367Z,3.00
2024-01-26T04:30:01.201Z,2.00
2024-01-26T04:32:29.056Z,3.00
2024-01-26T04:34:56.763Z,2.50
2024-01-26T04:37:24.843Z,3.00
2024-01-26T04:39:52.658Z,1.00
2024-01-26T04:42:23.365Z,3.00
2024-01-26T04:44:52.153Z,1.50
2024-01-26T04:47:19.888Z,3.00
2024-01-26T04:49:47.612Z,3.00
2024-01-26T04:52:15.451Z,1.00
2024-01-26T04:54:43.148Z,1.00
2024-01-26T04:57:10.800Z,1.00
2024-01-26T04:59:50.936Z,1.00
2024-01-26T05:02:18.660Z,3.00
2024-01-26T05:04:46.329Z,1.00
2024-01-26T05:07:14.265Z,3.00
2024-01-26T05:09:43.316Z,1.00
2024-01-26T05:12:12.398Z,0.00
2024-01-26T05:14:40.349Z,1.00
2024-01-26T05:17:08.032Z,1.00
2024-01-26T05:19:35.721Z,1.50
2024-01-26T05:22:03.761Z,3.00
2024-01-26T05:24:31.427Z,3.00
2024-01-26T05:26:59.138Z,3.50
2024-01-26T05:29:27.723Z,3.50
2024-01-26T05:31:55.501Z,4.00
2024-01-26T05:34:23.260Z,2.50
2024-01-26T05:36:51.039Z,5.50
2024-01-26T05:39:18.820Z,3.25
2024-01-26T05:41:46.990Z,3.00
2024-01-26T05:44:15.121Z,3.50
2024-01-26T05:46:42.768Z,3.00
2024-01-26T05:49:10.917Z,3.00
2024-01-26T05:51:38.897Z,1.50
2024-01-26T05:54:06.651Z,3.00
2024-01-26T05:56:34.373Z,1.00
2024-01-26T05:59:02.105Z,1.00
2024-01-26T06:01:29.784Z,3.00
2024-01-26T06:03:57.427Z,3.00
2024-01-26T06:06:25.267Z,1.50
2024-01-26T06:08:53.012Z,3.00
2024-01-26T06:11:20.825Z,0.00
2024-01-26T06:13:50.311Z,3.00
2024-01-26T06:16:19.842Z,2.00
2024-01-26T06:18:47.760Z,1.00
2024-01-26T06:21:15.905Z,3.50
2024-01-26T06:23:43.741Z,3.25
2024-01-26T06:26:11.475Z,2.50
2024-01-26T06:28:39.777Z,2.50
2024-01-26T06:31:07.421Z,4.00
2024-01-26T06:33:35.443Z,1.00
2024-01-26T06:36:03.373Z,3.00
2024-01-26T06:38:31.323Z,1.00
2024-01-26T06:41:00.450Z,5.00
2024-01-26T06:43:29.436Z,1.00
2024-01-26T06:45:57.174Z,4.50
2024-01-26T06:48:26.696Z,1.00
2024-01-26T06:50:54.484Z,2.00
2024-01-26T06:53:22.528Z,1.00
2024-01-26T06:55:52.091Z,1.00
2024-01-26T06:58:20.760Z,1.00
2024-01-26T07:00:48.572Z,0.75
2024-01-26T07:03:16.433Z,1.00
2024-01-26T07:05:44.321Z,0.50
2024-01-26T07:08:12.060Z,0.00
2024-01-26T07:10:39.772Z,1.00
2024-01-26T07:13:08.032Z,1.00
2024-01-26T07:15:36.630Z,1.00
2024-01-26T07:18:05.506Z,0.00
2024-01-26T07:20:37.646Z,0.75
2024-01-26T07:23:06.759Z,0.00
2024-01-26T07:25:34.539Z,0.00
2024-01-26T07:28:02.423Z,0.75
2024-01-26T07:30:30.178Z,0.00
2024-01-26T07:32:58.041Z,0.00
2024-01-26T07:35:26.207Z,0.75
2024-01-26T07:37:54.010Z,0.25
2024-01-26T07:40:21.760Z,0.00
2024-01-26T07:42:49.538Z,0.00
2024-01-26T07:45:17.421Z,0.00
2024-01-26T07:47:45.295Z,0.00
2024-01-26T07:50:13.219Z,0.00
2024-01-26T07:52:41.264Z,0.00
2024-01-26T07:55:10.406Z,0.00
2024-01-26T07:57:39.103Z,0.00
2024-01-26T08:00:07.054Z,0.00
2024-01-26T08:02:35.054Z,0.00
2024-01-26T08:05:02.916Z,0.00
2024-01-26T08:07:30.763Z,1.50
2024-01-26T08:09:58.698Z,0.00
2024-01-26T08:12:38.377Z,0.00
2024-01-26T08:15:12.956Z,0.00
2024-01-26T08:17:41.220Z,0.50
2024-01-26T08:20:09.782Z,0.00
2024-01-26T08:22:41.218Z,0.00
2024-01-26T08:25:09.583Z,0.25
2024-01-26T08:27:38.089Z,0.00
2024-01-26T08:30:06.282Z,1.00
2024-01-26T08:32:34.159Z,0.00
2024-01-26T08:35:02.299Z,1.00
2024-01-26T08:37:30.218Z,1.00
2024-01-26T08:39:58.962Z,1.00
2024-01-26T08:42:26.775Z,0.00
2024-01-26T08:44:54.907Z,0.00
2024-01-26T08:47:22.754Z,0.00
2024-01-26T08:49:50.581Z,0.00
2024-01-26T08:52:18.604Z,0.00
2024-01-26T08:54:46.292Z,0.00
2024-01-26T08:57:14.150Z,0.00
2024-01-26T08:59:42.118Z,0.00
2024-01-26T09:02:10.385Z,0.25
2024-01-26T09:04:38.337Z,0.00
2024-01-26T09:07:10.498Z,0.00
2024-01-26T09:09:39.069Z,0.00
2024-01-26T09:12:07.152Z,0.00
2024-01-26T09:14:35.139Z,0.00
2024-01-26T09:17:03.023Z,0.00
2024-01-26T09:19:31.115Z,0.00
2024-01-26T09:21:58.897Z,0.00
2024-01-26T09:24:27.193Z,0.00
2024-01-26T09:26:57.186Z,0.00
2024-01-26T09:29:27.608Z,0.00
2024-01-26T09:31:58.438Z,0.00
2024-01-26T09:34:26.329Z,0.25
2024-01-26T09:36:57.296Z,0.00
2024-01-26T09:39:25.950Z,0.50
2024-01-26T09:41:53.833Z,1.00
2024-01-26T09:44:21.611Z,1.00
2024-01-26T09:46:49.592Z,1.00
2024-01-26T09:49:17.311Z,1.00
2024-01-26T09:51:45.291Z,2.00
2024-01-26T09:54:13.312Z,2.00
2024-01-26T09:56:41.176Z,2.00
2024-01-26T09:59:08.911Z,2.00
2024-01-26T10:01:37.249Z,0.50
2024-01-26T10:04:05.280Z,1.50
2024-01-26T10:06:33.933Z,0.00
2024-01-26T10:09:02.521Z,1.50
2024-01-26T10:11:30.411Z,0.50
2024-01-26T10:13:58.202Z,1.00
2024-01-26T10:16:26.278Z,1.00
2024-01-26T10:18:54.248Z,0.75
2024-01-26T10:21:23.818Z,1.00
2024-01-26T10:23:55.249Z,0.00
2024-01-26T10:26:23.041Z,0.00
2024-01-26T10:28:51.952Z,0.25
2024-01-26T10:31:21.506Z,0.00
2024-01-26T10:33:49.543Z,0.00
2024-01-26T10:36:17.675Z,0.00
2024-01-26T10:38:47.117Z,0.00
2024-01-26T10:41:16.159Z,0.00
2024-01-26T10:43:44.089Z,0.50
2024-01-26T10:46:12.054Z,0.00
2024-01-26T10:48:40.034Z,0.00
2024-01-26T10:51:08.755Z,0.00
2024-01-26T10:53:36.837Z,0.00
2024-01-26T10:56:05.718Z,0.00
2024-01-26T10:58:33.500Z,0.00
2024-01-26T11:01:01.691Z,0.00
2024-01-26T11:03:29.597Z,0.00
2024-01-26T11:05:57.711Z,0.50
2024-01-26T11:08:26.569Z,0.00
2024-01-26T11:10:54.820Z,0.00
2024-01-26T11:13:23.158Z,0.00
2024-01-26T11:15:51.141Z,0.00
2024-01-26T11:18:19.320Z,0.50
2024-01-26T11:20:48.451Z,0.00
2024-01-26T11:23:16.671Z,0.50
2024-01-26T11:25:44.946Z,0.00
2024-01-26T11:28:13.120Z,0.25
2024-01-26T11:30:41.108Z,1.00
2024-01-26T11:33:09.002Z,1.00
2024-01-26T11:35:37.247Z,0.00
2024-01-26T11:38:05.282Z,0.00
2024-01-26T11:40:33.244Z,0.00
2024-01-26T11:43:01.097Z,0.00
2024-01-26T11:45:29.063Z,0.00
2024-01-26T11:47:56.962Z,0.00
2024-01-26T11:50:24.922Z,0.00
2024-01-26T11:52:52.858Z,0.00
2024-01-26T11:55:21.685Z,0.00
2024-01-26T11:57:50.410Z,0.00
2024-01-26T12:00:18.468Z,0.00
2024-01-26T12:02:46.380Z,0.00
2024-01-26T12:05:14.358Z,0.00
2024-01-26T12:07:42.331Z,0.00
2024-01-26T12:10:10.577Z,0.00
2024-01-26T12:12:41.158Z,0.00
2024-01-26T12:15:09.107Z,0.00
2024-01-26T12:17:37.114Z,0.25
2024-01-26T12:20:05.387Z,0.00
2024-01-26T12:22:34.037Z,0.00
2024-01-26T12:25:04.216Z,0.00
2024-01-26T12:27:32.121Z,0.00
2024-01-26T12:30:00.068Z,0.00
2024-01-26T12:32:27.949Z,0.00
2024-01-26T12:34:55.933Z,0.00
2024-01-26T12:37:23.905Z,0.00
2024-01-26T12:39:51.721Z,0.00
2024-01-26T12:42:20.059Z,0.00
2024-01-26T12:44:48.360Z,0.00
2024-01-26T12:47:16.336Z,0.00
2024-01-26T12:49:44.425Z,0.00
2024-01-26T12:52:12.934Z,0.00
2024-01-26T12:54:40.775Z,0.00
2024-01-26T12:57:08.526Z,0.00
2024-01-26T12:59:36.620Z,0.00
2024-01-26T13:02:04.402Z,0.00
2024-01-26T13:04:32.727Z,0.00
2024-01-26T13:07:01.916Z,0.00
2024-01-26T13:09:29.910Z,0.00
2024-01-26T13:12:01.537Z,0.00
2024-01-26T13:14:29.863Z,0.00
2024-01-26T13:16:57.651Z,0.00
2024-01-26T13:19:25.951Z,0.00
2024-01-26T13:21:54.056Z,0.00
2024-01-26T13:24:22.091Z,0.00
2024-01-26T13:26:50.972Z,0.00
2024-01-26T13:29:18.937Z,0.00
2024-01-26T13:31:46.781Z,0.00
2024-01-26T13:34:15.893Z,0.00
2024-01-26T13:36:46.235Z,0.00
2024-01-26T13:39:15.252Z,0.00
2024-01-26T13:41:43.187Z,0.00
2024-01-26T13:44:11.033Z,0.00
2024-01-26T13:46:38.949Z,0.00
2024-01-26T13:49:06.960Z,0.00
2024-01-26T13:51:34.844Z,0.00
2024-01-26T13:54:02.894Z,0.00
2024-01-26T13:56:30.726Z,0.00
2024-01-26T13:58:59.319Z,0.00
2024-01-26T14:01:27.348Z,0.00
2024-01-26T14:03:55.801Z,0.00
2024-01-26T14:06:23.913Z,0.00
2024-01-26T14:08:51.833Z,0.00
2024-01-26T14:11:21.175Z,0.00
2024-01-26T14:13:49.245Z,0.00
2024-01-26T14:16:17.087Z,2.50
2024-01-26T14:18:45.155Z,0.00
2024-01-26T14:21:13.281Z,0.25
2024-01-26T14:23:41.343Z,0.00
2024-01-26T14:26:11.837Z,0.00
2024-01-26T14:28:40.007Z,0.00
2024-01-26T14:31:07.915Z,0.00
2024-01-26T14:33:36.781Z,0.00
2024-01-26T14:36:06.390Z,1.00
2024-01-26T14:38:34.205Z,0.00
2024-01-26T14:41:02.353Z,0.25
2024-01-26T14:43:32.931Z,5.50
2024-01-26T14:46:02.348Z,0.00
2024-01-26T14:48:30.329Z,0.00
2024-01-26T14:50:58.363Z,1.00
2024-01-26T14:53:28.970Z,0.00
2024-01-26T14:55:56.889Z,0.00
2024-01-26T14:58:24.753Z,0.00
2024-01-26T15:00:52.651Z,0.00
2024-01-26T15:03:21.588Z,0.00
2024-01-26T15:05:50.485Z,0.00
2024-01-26T15:08:18.375Z,0.50
2024-01-26T15:10:46.425Z,1.25
2024-01-26T15:13:14.336Z,1.00
2024-01-26T15:15:42.630Z,0.50
2024-01-26T15:18:10.560Z,0.00
2024-01-26T15:20:39.101Z,0.00
2024-01-26T15:23:06.880Z,1.00
2024-01-26T15:25:34.773Z,0.00
2024-01-26T15:28:02.956Z,0.50
2024-01-26T15:30:30.776Z,1.00
2024-01-26T15:32:58.946Z,1.00
2024-01-26T15:35:27.207Z,1.00
2024-01-26T15:37:55.641Z,0.00
2024-01-26T15:40:23.556Z,0.00
2024-01-26T15:42:51.348Z,0.00
2024-01-26T15:45:19.155Z,1.00
2024-01-26T15:47:47.583Z,1.00
2024-01-26T15:50:15.753Z,0.50
2024-01-26T15:52:46.581Z,1.00
2024-01-26T15:55:15.635Z,0.00
2024-01-26T15:57:43.665Z,1.00
2024-01-26T16:00:13.504Z,0.00
2024-01-26T16:02:41.734Z,0.00
2024-01-26T16:05:10.451Z,1.00
2024-01-26T16:07:38.583Z,0.00
2024-01-26T16:10:06.433Z,0.00
2024-01-26T16:12:37.345Z,0.00
2024-01-26T16:15:05.575Z,0.00
2024-01-26T16:17:33.605Z,0.50
2024-01-26T16:20:01.828Z,0.00
2024-01-26T16:22:30.128Z,0.00
2024-01-26T16:24:58.147Z,0.50
2024-01-26T16:27:26.599Z,0.00
2024-01-26T16:29:54.760Z,1.00
2024-01-26T16:32:23.101Z,0.00
2024-01-26T16:34:51.130Z,1.00
2024-01-26T16:37:19.134Z,0.00
2024-01-26T16:39:47.050Z,0.00
2024-01-26T16:42:15.008Z,0.75
2024-01-26T16:44:43.834Z,0.00
2024-01-26T16:47:11.719Z,1.00
2024-01-26T16:49:39.901Z,1.00
2024-01-26T16:52:08.148Z,1.00
2024-01-26T16:54:36.574Z,1.50
2024-01-26T16:57:04.442Z,0.00
2024-01-26T16:59:32.826Z,0.00
2024-01-26T17:02:00.730Z,0.00
2024-01-26T17:04:28.717Z,0.00
2024-01-26T17:06:58.970Z,0.00
2024-01-26T17:09:28.403Z,0.00
2024-01-26T17:11:56.465Z,0.00
2024-01-26T17:14:24.316Z,0.25
2024-01-26T17:16:52.161Z,0.00
2024-01-26T17:19:20.274Z,0.00
2024-01-26T17:21:48.282Z,4.00
2024-01-26T17:24:16.183Z,4.50
2024-01-26T17:26:44.190Z,1.00
2024-01-26T17:29:12.540Z,0.00
2024-01-26T17:31:40.486Z,0.00
2024-01-26T17:34:08.810Z,1.00
2024-01-26T17:36:36.818Z,0.00
2024-01-26T17:39:04.967Z,0.00
2024-01-26T17:41:32.905Z,1.00
2024-01-26T17:44:00.733Z,0.50
2024-01-26T17:48:58.763Z,0.00
2024-01-26T17:51:27.189Z,1.00
2024-01-26T17:53:54.992Z,0.00
2024-01-26T17:56:23.129Z,0.50
2024-01-26T17:58:50.976Z,1.00
2024-01-26T18:01:18.987Z,0.00
2024-01-26T18:03:47.240Z,1.00
2024-01-26T18:06:15.363Z,2.50
2024-01-26T18:08:43.376Z,1.00
2024-01-26T18:11:11.595Z,1.00
2024-01-26T18:13:39.960Z,0.00
2024-01-26T18:16:08.347Z,0.00
2024-01-26T18:18:36.562Z,0.25
2024-01-26T18:21:04.532Z,1.00
2024-01-26T18:23:32.544Z,1.00
2024-01-26T18:26:00.556Z,0.00
2024-01-26T18:28:30.378Z,0.00
2024-01-26T18:31:00.181Z,0.50
2024-01-26T18:33:28.526Z,0.00
2024-01-26T18:35:57.100Z,0.75
2024-01-26T18:38:25.028Z,0.00
2024-01-26T18:40:53.037Z,0.50
2024-01-26T18:43:21.560Z,0.00
2024-01-26T18:45:49.522Z,1.00
2024-01-26T18:48:17.876Z,1.00
2024-01-26T18:50:46.142Z,0.00
2024-01-26T18:53:14.346Z,0.00
2024-01-26T18:55:42.431Z,0.25
2024-01-26T18:58:10.847Z,1.00
2024-01-26T19:00:39.080Z,1.00
2024-01-26T19:03:07.235Z,0.00
2024-01-26T19:05:35.199Z,0.00
2024-01-26T19:08:03.840Z,0.00
2024-01-26T19:10:32.500Z,1.00
2024-01-26T19:13:06.228Z,3.00
2024-01-26T19:15:34.534Z,0.00
2024-01-26T19:18:03.493Z,1.00
2024-01-26T19:20:31.679Z,0.00
2024-01-26T19:22:59.776Z,0.50
2024-01-26T19:25:28.010Z,1.00
2024-01-26T19:27:55.927Z,1.00
2024-01-26T19:30:24.021Z,1.00
2024-01-26T19:32:56.246Z,2.00
2024-01-26T19:35:25.652Z,3.00
2024-01-26T19:37:53.906Z,1.00
2024-01-26T19:40:22.410Z,1.00
2024-01-26T19:42:51.129Z,1.00
2024-01-26T19:45:19.092Z,0.00
2024-01-26T19:47:48.526Z,0.00
2024-01-26T19:50:16.727Z,1.00
2024-01-26T19:52:45.804Z,1.00
2024-01-26T19:55:13.733Z,0.50
2024-01-26T19:57:41.817Z,0.75
2024-01-26T20:00:10.874Z,1.00
2024-01-26T20:02:39.690Z,1.00
2024-01-26T20:05:08.896Z,0.50
2024-01-26T20:07:37.178Z,1.00
2024-01-26T20:10:10.350Z,1.00
2024-01-26T20:12:39.505Z,1.00
2024-01-26T20:15:07.595Z,1.00
2024-01-26T20:17:36.633Z,0.50
2024-01-26T20:20:05.174Z,0.00
2024-01-26T20:22:34.179Z,0.50
2024-01-26T20:25:02.395Z,0.75
2024-01-26T20:27:31.877Z,1.00
2024-01-26T20:30:00.446Z,2.00
2024-01-26T20:32:28.988Z,1.00
2024-01-26T20:34:57.265Z,1.00
2024-01-26T20:37:25.363Z,3.00
2024-01-26T20:39:53.538Z,1.40
2024-01-26T20:42:25.846Z,0.25
2024-01-26T20:44:54.532Z,1.80
2024-01-26T20:47:25.627Z,1.00
2024-01-26T20:49:53.728Z,0.00
2024-01-26T20:52:22.723Z,0.00
2024-01-26T20:54:50.733Z,1.00
2024-01-26T20:57:19.906Z,1.00
2024-01-26T20:59:48.061Z,0.00
2024-01-26T21:02:16.238Z,0.00
2024-01-26T21:04:44.159Z,0.00
2024-01-26T21:07:12.673Z,0.00
2024-01-26T21:09:41.461Z,0.00
2024-01-26T21:12:09.505Z,0.00
2024-01-26T21:14:37.358Z,0.00
2024-01-26T21:17:05.833Z,0.00
2024-01-26T21:19:33.682Z,0.00
2024-01-26T21:22:01.604Z,0.00
2024-01-26T21:24:30.185Z,0.00
2024-01-26T21:26:58.293Z,0.25
2024-01-26T21:29:26.520Z,0.00
2024-01-26T21:31:54.466Z,0.00
2024-01-26T21:34:22.537Z,0.00
2024-01-26T21:36:50.528Z,0.00
2024-01-26T21:39:18.779Z,0.00
2024-01-26T21:41:46.801Z,0.00
2024-01-26T21:44:15.130Z,0.00
2024-01-26T21:46:43.078Z,0.00
2024-01-26T21:49:12.697Z,0.00
2024-01-26T21:51:48.077Z,0.00
2024-01-26T21:54:23.210Z,0.00
2024-01-26T21:56:51.312Z,0.00
2024-01-26T21:59:19.343Z,0.00
2024-01-26T22:01:47.200Z,0.60
2024-01-26T22:04:15.040Z,0.00
2024-01-26T22:06:44.669Z,0.00
2024-01-26T22:09:13.768Z,1.00
2024-01-26T22:11:42.231Z,0.00
2024-01-26T22:14:10.217Z,2.60
2024-01-26T22:16:38.599Z,0.40
2024-01-26T22:19:06.566Z,0.00
2024-01-26T22:21:34.412Z,0.00
2024-01-26T22:24:02.813Z,0.00
2024-01-26T22:26:30.682Z,0.00
2024-01-26T22:29:00.131Z,1.00
2024-01-26T22:31:28.005Z,0.00
2024-01-26T22:33:56.543Z,0.00
2024-01-26T22:36:24.495Z,0.00
2024-01-26T22:38:58.279Z,0.00
2024-01-26T22:41:26.078Z,1.00
2024-01-26T22:43:53.940Z,0.00
2024-01-26T22:46:21.861Z,0.00
2024-01-26T22:48:49.872Z,0.00
2024-01-26T22:51:19.007Z,0.00
2024-01-26T22:53:47.012Z,1.80
2024-01-26T22:56:15.285Z,0.00
2024-01-26T22:58:43.059Z,0.40
2024-01-26T23:01:13.515Z,0.20
2024-01-26T23:03:44.466Z,0.00
2024-01-26T23:06:12.648Z,1.00
2024-01-26T23:08:42.980Z,0.00
2024-01-26T23:11:10.668Z,0.00
2024-01-26T23:13:38.584Z,0.00
2024-01-26T23:16:06.643Z,0.00
2024-01-26T23:18:34.460Z,0.80
2024-01-26T23:21:02.692Z,0.00
2024-01-26T23:23:30.476Z,0.00
2024-01-26T23:25:58.334Z,0.00
2024-01-26T23:28:27.654Z,0.00
2024-01-26T23:30:55.529Z,1.00
2024-01-26T23:33:23.380Z,1.00
2024-01-26T23:35:51.179Z,0.00
2024-01-26T23:38:19.323Z,0.00
2024-01-26T23:40:47.036Z,1.00
2024-01-26T23:43:14.743Z,0.00
2024-01-26T23:45:42.565Z,0.20
2024-01-26T23:48:10.859Z,0.00
2024-01-26T23:50:40.781Z,0.00
2024-01-26T23:53:08.586Z,0.00
2024-01-26T23:55:36.299Z,0.80
2024-01-26T23:58:04.034Z,0.00
